createdAt,value
2018-12-27T00:01:15.089Z,16.90
2018-12-27T00:03:43.475Z,15.10
2018-12-27T00:06:12.099Z,15.33
2018-12-27T00:08:40.833Z,15.93
2018-12-27T00:11:09.223Z,15.43
2018-12-27T00:13:37.917Z,16.20
2018-12-27T00:16:06.317Z,16.20
2018-12-27T00:18:34.706Z,15.70
2018-12-27T00:21:03.364Z,16.40
2018-12-27T00:23:31.752Z,15.80
2018-12-27T00:26:00.538Z,15.30
2018-12-27T00:28:28.937Z,15.67
2018-12-27T00:30:57.448Z,17.47
2018-12-27T00:33:25.979Z,14.73
2018-12-27T00:35:54.867Z,15.60
2018-12-27T00:38:23.757Z,15.97
2018-12-27T00:40:52.646Z,16.47
2018-12-27T00:43:21.169Z,15.47
2018-12-27T00:45:49.685Z,15.83
2018-12-27T00:48:18.208Z,15.17
2018-12-27T00:50:46.721Z,16.00
2018-12-27T00:53:15.665Z,16.20
2018-12-27T00:55:44.179Z,16.13
2018-12-27T00:58:13.035Z,16.37
2018-12-27T01:00:41.549Z,15.83
2018-12-27T01:03:11.216Z,14.77
2018-12-27T01:05:40.103Z,15.00
2018-12-27T01:08:08.621Z,15.43
2018-12-27T01:10:37.135Z,15.40
2018-12-27T01:13:05.761Z,15.07
2018-12-27T01:15:34.273Z,14.63
2018-12-27T01:18:02.798Z,16.10
2018-12-27T01:20:31.390Z,16.70
2018-12-27T01:22:59.900Z,16.43
2018-12-27T01:25:28.418Z,16.40
2018-12-27T01:27:56.924Z,16.07
2018-12-27T01:30:25.755Z,15.50
2018-12-27T01:32:54.395Z,15.03
2018-12-27T01:35:23.109Z,14.50
2018-12-27T01:37:51.619Z,15.93
2018-12-27T01:40:20.495Z,15.00
2018-12-27T01:42:49.387Z,15.03
2018-12-27T01:45:17.903Z,15.87
2018-12-27T01:47:46.766Z,15.83
2018-12-27T01:50:15.284Z,15.60
2018-12-27T01:52:43.794Z,15.30
2018-12-27T01:55:12.321Z,15.67
2018-12-27T01:57:40.827Z,15.57
2018-12-27T02:00:09.419Z,14.57
2018-12-27T02:02:38.672Z,15.57
2018-12-27T02:05:07.259Z,15.73
2018-12-27T02:07:35.779Z,14.47
2018-12-27T02:10:04.727Z,15.70
2018-12-27T02:12:33.627Z,14.97
2018-12-27T02:15:02.493Z,14.37
2018-12-27T02:17:31.017Z,14.20
2018-12-27T02:19:59.883Z,13.50
2018-12-27T02:22:28.415Z,14.73
2018-12-27T02:24:57.256Z,13.77
2018-12-27T02:27:25.783Z,15.03
2018-12-27T02:29:54.296Z,14.70
2018-12-27T02:32:22.815Z,15.53
2018-12-27T02:34:51.596Z,14.73
2018-12-27T02:37:20.115Z,14.23
2018-12-27T02:39:48.633Z,14.70
2018-12-27T02:42:17.154Z,13.97
2018-12-27T02:44:45.666Z,15.97
2018-12-27T02:47:14.191Z,14.87
2018-12-27T02:49:42.702Z,16.17
2018-12-27T02:52:11.210Z,15.53
2018-12-27T02:54:40.264Z,15.20
2018-12-27T02:57:08.973Z,14.33
2018-12-27T02:59:37.550Z,14.00
2018-12-27T03:16:43.676Z,14.37
2018-12-27T03:19:12.190Z,13.53
2018-12-27T03:21:41.069Z,14.50
2018-12-27T03:24:09.953Z,13.20
2018-12-27T03:26:38.477Z,13.10
2018-12-27T03:29:06.995Z,13.17
2018-12-27T03:31:35.849Z,13.57
2018-12-27T03:34:04.354Z,13.73
2018-12-27T03:36:32.875Z,14.10
2018-12-27T03:39:01.402Z,13.93
2018-12-27T03:41:29.916Z,13.40
2018-12-27T03:43:58.437Z,14.53
2018-12-27T03:46:27.091Z,13.93
2018-12-27T03:48:55.612Z,13.40
2018-12-27T03:51:24.126Z,13.70
2018-12-27T03:53:52.651Z,15.20
2018-12-27T03:56:21.170Z,14.73
2018-12-27T03:58:50.118Z,14.53
2018-12-27T04:01:18.869Z,16.00
2018-12-27T04:03:47.911Z,14.07
2018-12-27T04:06:16.800Z,15.03
2018-12-27T04:08:45.331Z,14.40
2018-12-27T04:11:13.953Z,15.60
2018-12-27T04:13:42.882Z,14.37
2018-12-27T04:16:11.264Z,14.40
2018-12-27T04:18:39.645Z,14.53
2018-12-27T04:21:08.302Z,13.10
2018-12-27T04:23:37.052Z,14.20
2018-12-27T04:26:06.084Z,13.20
2018-12-27T04:28:34.469Z,13.17
2018-12-27T04:31:03.145Z,13.40
2018-12-27T04:33:32.265Z,13.10
2018-12-27T04:36:00.838Z,13.97
2018-12-27T04:38:29.227Z,14.03
2018-12-27T04:40:57.621Z,14.00
2018-12-27T04:43:26.940Z,12.40
2018-12-27T04:45:55.400Z,13.50
2018-12-27T04:48:24.058Z,13.70
2018-12-27T04:50:52.457Z,13.30
2018-12-27T04:53:21.229Z,13.70
2018-12-27T04:55:49.634Z,14.10
2018-12-27T04:58:18.014Z,14.00
2018-12-27T05:00:46.398Z,14.90
2018-12-27T05:03:14.791Z,13.63
2018-12-27T05:05:43.182Z,14.23
2018-12-27T05:08:11.728Z,12.67
2018-12-27T05:10:40.119Z,13.97
2018-12-27T05:13:08.512Z,12.67
2018-12-27T05:15:36.889Z,13.70
2018-12-27T05:18:05.547Z,13.73
2018-12-27T05:20:33.928Z,13.70
2018-12-27T05:23:02.331Z,12.90
2018-12-27T05:25:30.888Z,12.93
2018-12-27T05:27:59.570Z,12.63
2018-12-27T05:30:28.266Z,13.60
2018-12-27T05:32:56.931Z,12.97
2018-12-27T05:35:25.328Z,13.60
2018-12-27T05:37:53.709Z,13.60
2018-12-27T05:40:22.100Z,13.73
2018-12-27T05:42:50.849Z,13.63
2018-12-27T05:45:19.240Z,13.27
2018-12-27T05:47:47.632Z,13.27
2018-12-27T05:50:16.020Z,13.43
2018-12-27T05:52:44.404Z,12.80
2018-12-27T05:55:13.053Z,12.47
2018-12-27T05:57:41.438Z,13.83
2018-12-27T06:00:09.901Z,13.03
2018-12-27T06:02:38.279Z,13.73
2018-12-27T06:05:06.690Z,12.80
2018-12-27T06:07:35.084Z,14.30
2018-12-27T06:10:04.769Z,13.63
2018-12-27T06:12:33.158Z,13.37
2018-12-27T06:15:01.546Z,13.63
2018-12-27T06:17:29.932Z,12.50
2018-12-27T06:19:58.499Z,12.80
2018-12-27T06:22:26.889Z,12.00
2018-12-27T06:24:56.158Z,13.67
2018-12-27T06:27:24.932Z,12.70
2018-12-27T06:29:53.316Z,13.63
2018-12-27T06:32:21.717Z,13.17
2018-12-27T06:34:50.101Z,12.60
2018-12-27T06:37:18.873Z,12.57
2018-12-27T06:39:47.270Z,13.20
2018-12-27T06:42:15.660Z,13.20
2018-12-27T06:44:44.046Z,13.63
2018-12-27T06:47:12.427Z,13.67
2018-12-27T06:49:40.819Z,14.07
2018-12-27T06:52:09.209Z,13.30
2018-12-27T06:54:37.604Z,14.10
2018-12-27T06:57:06.295Z,13.63
2018-12-27T06:59:35.001Z,12.73
2018-12-27T07:02:03.390Z,14.10
2018-12-27T07:04:31.987Z,12.67
2018-12-27T07:07:00.373Z,12.93
2018-12-27T07:09:28.775Z,12.67
2018-12-27T07:11:57.156Z,13.90
2018-12-27T07:14:25.550Z,13.40
2018-12-27T07:16:53.946Z,13.50
2018-12-27T07:19:22.646Z,13.53
2018-12-27T07:21:51.035Z,12.90
2018-12-27T07:24:19.810Z,12.97
2018-12-27T07:26:48.201Z,12.20
2018-12-27T07:29:16.693Z,12.40
2018-12-27T07:31:45.074Z,12.80
2018-12-27T07:34:13.477Z,12.25
2018-12-27T07:36:41.860Z,13.03
2018-12-27T07:39:10.485Z,12.10
2018-12-27T07:41:38.893Z,12.13
2018-12-27T07:44:07.280Z,12.30
2018-12-27T07:46:35.943Z,13.33
2018-12-27T07:49:04.660Z,13.10
2018-12-27T07:51:33.204Z,12.77
2018-12-27T07:54:01.657Z,13.13
2018-12-27T07:56:30.124Z,13.20
2018-12-27T07:58:59.001Z,13.30
2018-12-27T08:01:27.453Z,13.10
2018-12-27T08:03:55.892Z,12.80
2018-12-27T08:06:24.390Z,12.43
2018-12-27T08:08:52.862Z,13.30
2018-12-27T08:11:21.338Z,12.68
2018-12-27T08:13:49.775Z,12.07
2018-12-27T08:16:18.166Z,12.70
2018-12-27T08:18:46.587Z,11.53
2018-12-27T08:21:15.075Z,12.80
2018-12-27T08:23:43.467Z,12.53
2018-12-27T08:26:11.853Z,12.13
2018-12-27T08:28:40.298Z,12.67
2018-12-27T08:31:08.999Z,13.07
2018-12-27T08:33:37.700Z,11.43
2018-12-27T08:36:06.093Z,12.30
2018-12-27T08:38:34.951Z,11.50
2018-12-27T08:41:03.271Z,12.37
2018-12-27T08:43:32.248Z,13.10
2018-12-27T08:46:00.644Z,14.00
2018-12-27T08:48:29.022Z,13.40
2018-12-27T08:50:57.403Z,13.20
2018-12-27T08:53:25.866Z,12.53
2018-12-27T08:55:54.274Z,13.13
2018-12-27T08:58:23.133Z,14.00
2018-12-27T09:00:51.522Z,12.90
2018-12-27T09:03:19.910Z,12.53
2018-12-27T09:05:48.301Z,14.33
2018-12-27T09:08:16.762Z,13.23
2018-12-27T09:10:45.193Z,13.73
2018-12-27T09:13:13.584Z,12.90
2018-12-27T09:15:41.969Z,13.03
2018-12-27T09:18:10.359Z,12.60
2018-12-27T09:20:38.751Z,13.37
2018-12-27T09:23:07.144Z,12.47
2018-12-27T09:25:35.523Z,13.50
2018-12-27T09:28:03.922Z,11.90
2018-12-27T09:30:32.304Z,13.60
2018-12-27T09:33:00.918Z,13.47
2018-12-27T09:35:29.300Z,13.03
2018-12-27T09:37:57.796Z,11.90
2018-12-27T09:40:26.269Z,11.43
2018-12-27T09:42:54.762Z,11.87
2018-12-27T09:45:23.456Z,12.87
2018-12-27T09:47:51.848Z,11.73
2018-12-27T09:50:20.227Z,12.13
2018-12-27T09:52:48.612Z,12.10
2018-12-27T09:55:17.151Z,12.70
2018-12-27T09:57:45.586Z,11.83
2018-12-27T10:00:13.978Z,11.67
2018-12-27T10:02:42.527Z,10.73
2018-12-27T10:05:10.920Z,10.90
2018-12-27T10:07:39.307Z,11.40
2018-12-27T10:10:07.767Z,10.00
2018-12-27T10:12:36.165Z,10.40
2018-12-27T10:15:06.986Z,11.00
2018-12-27T10:17:35.471Z,10.70
2018-12-27T10:20:04.350Z,11.53
2018-12-27T10:22:32.947Z,12.00
2018-12-27T10:25:01.335Z,12.00
2018-12-27T10:27:29.721Z,11.53
2018-12-27T10:29:58.115Z,11.30
2018-12-27T10:32:26.501Z,11.57
2018-12-27T10:34:55.132Z,11.50
2018-12-27T10:37:23.523Z,11.50
2018-12-27T10:39:52.074Z,12.40
2018-12-27T10:42:20.589Z,11.57
2018-12-27T10:44:49.260Z,11.73
2018-12-27T10:47:17.652Z,11.00
2018-12-27T10:49:46.039Z,10.47
2018-12-27T10:52:14.436Z,10.87
2018-12-27T10:54:42.994Z,11.33
2018-12-27T10:57:11.662Z,11.00
2018-12-27T10:59:40.049Z,11.63
2018-12-27T11:02:08.687Z,11.10
2018-12-27T11:04:37.069Z,9.87
2018-12-27T11:07:05.463Z,10.10
2018-12-27T11:09:34.276Z,9.80
2018-12-27T11:12:02.666Z,10.63
2018-12-27T11:14:31.056Z,11.10
2018-12-27T11:16:59.455Z,11.50
2018-12-27T11:19:27.841Z,11.20
2018-12-27T11:21:56.224Z,11.00
2018-12-27T11:24:24.619Z,10.67
2018-12-27T11:26:52.999Z,11.43
2018-12-27T11:29:21.396Z,12.13
2018-12-27T11:31:49.781Z,12.17
2018-12-27T11:34:18.186Z,12.10
2018-12-27T11:36:46.563Z,12.90
2018-12-27T11:39:15.154Z,12.40
2018-12-27T11:41:43.546Z,11.57
2018-12-27T11:44:12.196Z,12.60
2018-12-27T11:46:40.649Z,12.17
2018-12-27T11:49:09.035Z,12.43
2018-12-27T11:51:37.426Z,12.73
2018-12-27T11:54:06.330Z,12.03
2018-12-27T11:56:34.718Z,11.30
2018-12-27T11:59:03.418Z,11.47
2018-12-27T12:01:31.806Z,11.70
2018-12-27T12:04:00.205Z,12.67
2018-12-27T12:06:28.598Z,11.20
2018-12-27T12:08:56.980Z,10.90
2018-12-27T12:11:25.371Z,10.23
2018-12-27T12:13:53.756Z,9.93
2018-12-27T12:16:22.170Z,10.10
2018-12-27T12:18:50.916Z,10.10
2018-12-27T12:21:19.313Z,10.47
2018-12-27T12:23:47.695Z,9.93
2018-12-27T12:26:16.095Z,9.63
2018-12-27T12:28:45.518Z,9.33
2018-12-27T12:31:13.949Z,9.87
2018-12-27T12:33:42.339Z,10.07
2018-12-27T12:36:11.165Z,9.83
2018-12-27T12:38:41.252Z,10.67
2018-12-27T12:41:09.695Z,9.93
2018-12-27T12:43:38.094Z,9.47
2018-12-27T12:46:06.489Z,10.07
2018-12-27T12:48:34.881Z,10.60
2018-12-27T12:51:03.275Z,10.17
2018-12-27T12:53:32.185Z,10.00
2018-12-27T12:56:00.705Z,11.47
2018-12-27T12:58:29.092Z,11.67
2018-12-27T13:00:57.484Z,10.80
2018-12-27T13:03:25.881Z,10.03
2018-12-27T13:05:54.311Z,10.17
2018-12-27T13:08:22.463Z,10.97
2018-12-27T13:10:50.850Z,10.37
2018-12-27T13:13:19.245Z,10.70
2018-12-27T13:15:47.639Z,10.17
2018-12-27T13:18:16.038Z,10.37
2018-12-27T13:20:44.582Z,9.37
2018-12-27T13:23:12.972Z,11.10
2018-12-27T13:25:41.359Z,9.87
2018-12-27T13:28:09.755Z,10.33
2018-12-27T13:30:38.309Z,9.67
2018-12-27T13:33:06.706Z,9.73
2018-12-27T13:35:35.199Z,10.17
2018-12-27T13:38:03.597Z,10.37
2018-12-27T13:40:31.982Z,10.40
2018-12-27T13:43:00.563Z,11.07
2018-12-27T13:45:28.939Z,9.80
2018-12-27T13:47:57.519Z,11.10
2018-12-27T13:50:25.918Z,11.13
2018-12-27T13:52:54.435Z,10.87
2018-12-27T13:55:22.828Z,11.17
2018-12-27T13:57:51.435Z,10.57
2018-12-27T14:00:19.828Z,10.20
2018-12-27T14:02:48.587Z,10.60
2018-12-27T14:05:16.983Z,10.30
2018-12-27T14:07:45.795Z,10.20
2018-12-27T14:10:14.867Z,9.90
2018-12-27T14:12:43.451Z,10.60
2018-12-27T14:15:11.846Z,10.33
2018-12-27T14:17:40.226Z,10.57
2018-12-27T14:20:09.186Z,10.87
2018-12-27T14:22:37.581Z,10.90
2018-12-27T14:25:06.324Z,11.80
2018-12-27T14:27:34.850Z,12.63
2018-12-27T14:30:04.487Z,11.83
2018-12-27T14:32:32.894Z,12.20
2018-12-27T14:35:01.282Z,12.40
2018-12-27T14:37:29.663Z,12.37
2018-12-27T14:39:58.050Z,12.10
2018-12-27T14:42:26.533Z,11.93
2018-12-27T14:44:54.929Z,13.07
2018-12-27T14:47:23.915Z,12.20
2018-12-27T14:49:52.372Z,13.20
2018-12-27T14:52:20.792Z,12.67
2018-12-27T14:54:49.563Z,12.53
2018-12-27T14:57:17.957Z,13.60
2018-12-27T14:59:46.563Z,14.47
2018-12-27T15:02:14.964Z,13.20
2018-12-27T15:04:43.442Z,13.57
2018-12-27T15:07:11.821Z,14.00
2018-12-27T15:09:40.240Z,12.50
2018-12-27T15:12:08.617Z,12.80
2018-12-27T15:14:37.466Z,13.67
2018-12-27T15:17:05.913Z,12.97
2018-12-27T15:19:34.245Z,13.37
2018-12-27T15:22:02.644Z,12.60
2018-12-27T15:24:31.555Z,13.20
2018-12-27T15:26:59.969Z,13.07
2018-12-27T15:29:28.416Z,11.97
2018-12-27T15:31:57.812Z,12.50
2018-12-27T15:34:26.227Z,13.70
2018-12-27T15:36:54.726Z,13.87
2018-12-27T15:39:23.086Z,12.80
2018-12-27T15:41:51.653Z,13.40
2018-12-27T15:44:20.400Z,14.80
2018-12-27T15:46:49.115Z,14.13
2018-12-27T15:49:17.516Z,13.37
2018-12-27T15:51:45.897Z,13.20
2018-12-27T15:54:14.309Z,14.07
2018-12-27T15:56:42.864Z,13.57
2018-12-27T15:59:13.167Z,12.00
2018-12-27T16:01:41.609Z,12.33
2018-12-27T16:04:09.989Z,13.60
2018-12-27T16:06:38.385Z,12.70
2018-12-27T16:09:07.396Z,12.70
2018-12-27T16:11:35.851Z,12.87
2018-12-27T16:14:04.231Z,14.00
2018-12-27T16:16:32.635Z,12.93
2018-12-27T16:19:01.022Z,14.10
2018-12-27T16:21:29.468Z,14.47
2018-12-27T16:23:57.850Z,14.33
2018-12-27T16:26:26.371Z,14.23
2018-12-27T16:28:54.760Z,14.10
2018-12-27T16:31:25.039Z,14.73
2018-12-27T16:33:53.562Z,13.93
2018-12-27T16:36:21.957Z,13.93
2018-12-27T16:38:50.419Z,14.20
2018-12-27T16:41:19.085Z,22.63
2018-12-27T16:43:47.490Z,26.57
2018-12-27T16:46:15.912Z,26.17
2018-12-27T16:48:45.896Z,25.63
2018-12-27T16:51:14.295Z,17.60
2018-12-27T16:53:42.735Z,19.30
2018-12-27T16:56:11.121Z,16.00
2018-12-27T16:58:39.616Z,17.27
2018-12-27T17:01:07.995Z,16.20
2018-12-27T17:03:36.454Z,16.83
2018-12-27T17:06:04.890Z,16.37
2018-12-27T17:08:33.550Z,15.40
2018-12-27T17:11:01.935Z,16.20
2018-12-27T17:13:30.328Z,14.33
2018-12-27T17:15:58.722Z,14.13
2018-12-27T17:18:27.111Z,15.93
2018-12-27T17:20:55.512Z,15.87
2018-12-27T17:23:23.898Z,16.47
2018-12-27T17:25:52.677Z,16.83
2018-12-27T17:28:21.061Z,15.97
2018-12-27T17:30:49.445Z,15.40
2018-12-27T17:33:17.836Z,17.47
2018-12-27T17:35:46.215Z,16.90
2018-12-27T17:38:14.607Z,15.90
2018-12-27T17:40:42.991Z,16.23
2018-12-27T17:43:11.628Z,16.23
2018-12-27T17:45:40.022Z,16.87
2018-12-27T17:48:08.402Z,15.40
2018-12-27T17:50:36.802Z,17.60
2018-12-27T17:53:05.318Z,16.50
2018-12-27T17:55:33.707Z,15.97
2018-12-27T17:58:02.096Z,16.50
2018-12-27T18:00:30.488Z,15.43
2018-12-27T18:02:58.876Z,16.40
2018-12-27T18:05:27.266Z,16.30
2018-12-27T18:07:55.660Z,17.07
2018-12-27T18:10:24.100Z,17.00
2018-12-27T18:12:52.533Z,16.53
2018-12-27T18:15:20.888Z,15.80
2018-12-27T18:17:49.977Z,15.97
2018-12-27T18:20:18.350Z,16.47
2018-12-27T18:22:46.745Z,15.80
2018-12-27T18:25:15.206Z,17.37
2018-12-27T18:27:43.607Z,16.73
2018-12-27T18:30:11.993Z,17.63
2018-12-27T18:32:41.054Z,16.93
2018-12-27T18:35:09.741Z,17.50
2018-12-27T18:37:38.630Z,19.30
2018-12-27T18:40:07.149Z,17.83
2018-12-27T18:42:35.798Z,19.40
2018-12-27T18:45:05.047Z,19.33
2018-12-27T18:47:33.603Z,18.67
2018-12-27T18:50:02.010Z,17.73
2018-12-27T18:52:30.391Z,18.43
2018-12-27T18:54:59.148Z,19.27
2018-12-27T18:57:27.538Z,19.63
2018-12-27T18:59:55.928Z,18.43
2018-12-27T19:02:24.320Z,19.23
2018-12-27T19:04:52.699Z,22.03
2018-12-27T19:07:21.098Z,23.30
2018-12-27T19:09:49.722Z,18.80
2018-12-27T19:12:54.088Z,18.30
2018-12-27T19:15:22.540Z,18.40
2018-12-27T19:17:52.373Z,19.23
2018-12-27T19:20:21.111Z,18.30
2018-12-27T19:22:52.594Z,18.43
2018-12-27T19:25:21.076Z,18.70
2018-12-27T19:27:49.457Z,17.00
2018-12-27T19:30:18.034Z,18.50
2018-12-27T19:32:46.564Z,18.13
2018-12-27T19:35:14.993Z,16.80
2018-12-27T19:37:43.425Z,17.80
2018-12-27T19:40:11.822Z,19.63
2018-12-27T19:42:40.226Z,17.50
2018-12-27T19:45:08.701Z,18.23
2018-12-27T19:47:37.256Z,18.27
2018-12-27T19:50:06.020Z,18.00
2018-12-27T19:52:34.849Z,17.73
2018-12-27T19:55:03.241Z,16.80
2018-12-27T19:57:31.627Z,17.20
2018-12-27T20:00:00.030Z,16.90
2018-12-27T20:02:28.408Z,16.90
2018-12-27T20:04:56.897Z,17.47
2018-12-27T20:07:25.335Z,15.70
2018-12-27T20:09:54.056Z,17.30
2018-12-27T20:12:22.919Z,15.83
2018-12-27T20:14:51.318Z,15.10
2018-12-27T20:17:19.709Z,16.67
2018-12-27T20:19:48.115Z,16.20
2018-12-27T20:22:16.494Z,16.00
2018-12-27T20:24:44.891Z,17.67
2018-12-27T20:27:13.275Z,17.03
2018-12-27T20:29:41.682Z,16.43
2018-12-27T20:32:10.128Z,16.30
2018-12-27T20:34:38.524Z,16.13
2018-12-27T20:37:07.085Z,15.13
2018-12-27T20:39:36.257Z,15.27
2018-12-27T20:42:05.101Z,14.83
2018-12-27T20:44:33.483Z,16.07
2018-12-27T20:47:01.879Z,15.70
2018-12-27T20:49:30.328Z,15.80
2018-12-27T20:51:59.009Z,17.97
2018-12-27T20:54:27.514Z,22.33
2018-12-27T20:56:55.977Z,21.50
2018-12-27T20:59:24.452Z,19.33
2018-12-27T21:01:52.855Z,20.97
2018-12-27T21:04:21.245Z,19.80
2018-12-27T21:06:50.168Z,18.53
2018-12-27T21:09:18.574Z,18.10
2018-12-27T21:11:47.037Z,18.57
2018-12-27T21:14:15.426Z,17.10
2018-12-27T21:16:43.821Z,16.77
2018-12-27T21:19:12.250Z,17.37
2018-12-27T21:21:41.006Z,16.30
2018-12-27T21:24:09.407Z,18.10
2018-12-27T21:26:37.894Z,18.87
2018-12-27T21:29:06.369Z,18.93
2018-12-27T21:31:34.750Z,18.70
2018-12-27T21:34:03.630Z,18.30
2018-12-27T21:36:32.009Z,19.00
2018-12-27T21:39:00.605Z,18.90
2018-12-27T21:41:29.281Z,19.40
2018-12-27T21:43:57.674Z,21.17
2018-12-27T21:46:26.062Z,19.43
2018-12-27T21:48:54.913Z,18.70
2018-12-27T21:51:23.290Z,17.93
2018-12-27T21:53:51.686Z,18.67
2018-12-27T21:56:20.068Z,21.00
2018-12-27T21:58:48.459Z,20.10
2018-12-27T22:01:16.845Z,19.93
2018-12-27T22:03:45.244Z,20.20
2018-12-27T22:06:13.622Z,23.53
2018-12-27T22:08:43.620Z,21.60
2018-12-27T22:11:11.926Z,20.47
2018-12-27T22:13:40.313Z,20.37
2018-12-27T22:16:08.711Z,19.03
2018-12-27T22:18:37.516Z,18.63
2018-12-27T22:21:06.401Z,19.37
2018-12-27T22:23:34.790Z,19.33
2018-12-27T22:26:03.570Z,18.47
2018-12-27T22:28:32.257Z,19.17
2018-12-27T22:31:00.654Z,22.60
2018-12-27T22:33:29.037Z,19.30
2018-12-27T22:35:57.433Z,21.37
2018-12-27T22:38:26.215Z,20.13
2018-12-27T22:40:54.595Z,21.60
2018-12-27T22:43:23.364Z,20.87
2018-12-27T22:45:51.779Z,19.70
2018-12-27T22:48:20.159Z,21.57
2018-12-27T22:50:48.796Z,22.10
2018-12-27T22:53:17.476Z,20.87
2018-12-27T22:55:54.550Z,21.93
2018-12-27T22:58:22.943Z,20.37
2018-12-27T23:00:52.891Z,21.20
2018-12-27T23:03:21.279Z,20.23
2018-12-27T23:05:49.664Z,18.93
2018-12-27T23:08:18.061Z,20.47
2018-12-27T23:10:46.675Z,19.67
2018-12-27T23:13:15.365Z,18.87
2018-12-27T23:15:43.749Z,19.13
2018-12-27T23:18:12.145Z,19.13
2018-12-27T23:20:40.817Z,20.93
2018-12-27T23:23:09.472Z,20.00
2018-12-27T23:25:38.170Z,19.63
2018-12-27T23:28:06.560Z,18.83
2018-12-27T23:30:35.966Z,19.63
2018-12-27T23:33:04.650Z,18.33
2018-12-27T23:35:33.039Z,19.70
2018-12-27T23:38:01.435Z,19.90
2018-12-27T23:40:29.867Z,19.60
2018-12-27T23:42:58.257Z,20.00
2018-12-27T23:45:27.059Z,19.80
2018-12-27T23:47:55.741Z,20.70
2018-12-27T23:50:24.122Z,18.57
2018-12-27T23:52:52.510Z,19.50
2018-12-27T23:55:21.202Z,19.97
2018-12-27T23:57:49.869Z,19.10
